X  Close Metar Aviation Weather Data     EGGW London Luton Airport
Temperature
1°C Temperature
-1°C Dewpoint
87% Humidity



Wind
6 MPH
10 KM/H
3 M/S
5 KTS



280°
W
Current Conditions

Haze Haze
Pressure 1032.92 (hPa) - 30.5 (inHg)
Visibility 2.9 (mile) - 4.6 (km)
Airport
Airport-code EGGW

Location: London Luton Airport
Distance: 18 (mi)

Metar:
EGGW 251720Z AUTO 28005KT 230V310 4600 HZ OVC007 01/M01 Q1033

Time: 25-01-2022 17:20 GMT